createdAt,value
2018-08-07T00:02:12.525Z,96786.88
2018-08-07T00:04:39.712Z,96789.05
2018-08-07T00:07:06.871Z,96785.67
2018-08-07T00:09:33.985Z,96783.83
2018-08-07T00:12:01.144Z,96774.56
2018-08-07T00:14:28.328Z,96782.91
2018-08-07T00:16:55.479Z,96781.45
2018-08-07T00:19:22.665Z,96780.83
2018-08-07T00:21:49.795Z,96781.59
2018-08-07T00:24:16.920Z,96780.50
2018-08-07T00:26:44.104Z,96776.27
2018-08-07T00:29:11.358Z,96771.09
2018-08-07T00:31:38.548Z,96775.41
2018-08-07T00:34:05.740Z,96781.98
2018-08-07T00:36:32.937Z,96784.13
2018-08-07T00:39:00.096Z,96784.42
2018-08-07T00:41:27.264Z,96778.91
2018-08-07T00:43:54.392Z,96776.58
2018-08-07T00:46:21.559Z,96780.47
2018-08-07T00:48:48.746Z,96776.16
2018-08-07T00:51:15.947Z,96776.77
2018-08-07T00:53:43.145Z,96773.05
2018-08-07T00:56:10.420Z,96768.83
2018-08-07T00:58:37.580Z,96773.25
2018-08-07T01:01:05.385Z,96774.10
2018-08-07T01:03:32.500Z,96769.91
2018-08-07T01:05:59.656Z,96767.09
2018-08-07T01:08:26.825Z,96764.21
2018-08-07T01:10:53.974Z,96769.41
2018-08-07T01:13:21.145Z,96767.86
2018-08-07T01:15:48.275Z,96770.50
2018-08-07T01:18:15.420Z,96770.53
2018-08-07T01:20:42.644Z,96776.47
2018-08-07T01:23:09.837Z,96782.28
2018-08-07T01:25:37.041Z,96776.36
2018-08-07T01:28:04.264Z,96780.42
2018-08-07T01:30:31.404Z,96782.88
2018-08-07T01:32:58.567Z,96782.02
2018-08-07T01:35:26.769Z,96781.72
2018-08-07T01:37:53.936Z,96780.88
2018-08-07T01:40:21.105Z,96775.63
2018-08-07T01:42:48.231Z,96769.60
2018-08-07T01:45:15.461Z,96771.85
2018-08-07T01:47:42.619Z,96772.70
2018-08-07T01:50:11.340Z,96767.57
2018-08-07T01:52:38.491Z,96765.46
2018-08-07T01:55:07.509Z,96768.67
2018-08-07T01:57:34.975Z,96769.56
2018-08-07T02:00:02.216Z,96771.41
2018-08-07T02:02:29.480Z,96766.10
2018-08-07T02:04:56.620Z,96769.61
2018-08-07T02:07:23.787Z,96773.44
2018-08-07T02:09:50.933Z,96771.94
2018-08-07T02:12:18.129Z,96770.97
2018-08-07T02:14:45.321Z,96770.36
2018-08-07T02:17:12.496Z,96769.63
2018-08-07T02:19:39.757Z,96773.67
2018-08-07T02:22:06.955Z,96768.93
2018-08-07T02:24:34.112Z,96771.75
2018-08-07T02:27:01.240Z,96764.83
2018-08-07T02:29:28.448Z,96771.64
2018-08-07T02:31:55.611Z,96773.23
2018-08-07T02:34:22.732Z,96770.78
2018-08-07T02:36:49.893Z,96769.34
2018-08-07T02:39:17.056Z,96765.77
2018-08-07T02:41:44.196Z,96760.79
2018-08-07T02:44:11.349Z,96758.38
2018-08-07T02:46:38.512Z,96753.18
2018-08-07T02:49:05.692Z,96755.61
2018-08-07T02:51:32.824Z,96762.70
2018-08-07T02:54:00.011Z,96755.73
2018-08-07T02:56:27.244Z,96747.59
2018-08-07T02:58:54.498Z,96755.17
2018-08-07T03:01:21.647Z,96756.38
2018-08-07T03:03:48.840Z,96757.36
2018-08-07T03:06:16.038Z,96756.89
2018-08-07T03:08:43.168Z,96766.23
2018-08-07T03:11:10.329Z,96757.14
2018-08-07T03:13:37.481Z,96769.69
2018-08-07T03:16:05.020Z,96775.49
2018-08-07T03:18:32.206Z,96764.59
2018-08-07T03:20:59.337Z,96768.19
2018-08-07T03:23:26.488Z,96770.50
2018-08-07T03:25:53.624Z,96771.57
2018-08-07T03:28:20.784Z,96773.61
2018-08-07T03:30:47.966Z,96768.20
2018-08-07T03:33:15.159Z,96770.02
2018-08-07T03:35:42.300Z,96760.56
2018-08-07T03:38:09.410Z,96768.48
2018-08-07T03:40:36.584Z,96758.42
2018-08-07T03:43:03.795Z,96768.25
2018-08-07T03:45:30.931Z,96769.25
2018-08-07T03:47:58.057Z,96767.28
2018-08-07T03:50:25.232Z,96774.85
2018-08-07T03:52:52.416Z,96770.98
2018-08-07T03:55:19.591Z,96771.14
2018-08-07T03:57:47.284Z,96776.53
2018-08-07T04:00:16.276Z,96785.27
2018-08-07T04:02:43.544Z,96777.11
2018-08-07T04:05:10.772Z,96778.68
2018-08-07T04:07:38.132Z,96780.58
2018-08-07T04:10:07.157Z,96779.44
2018-08-07T04:12:34.268Z,96785.73
2018-08-07T04:15:01.479Z,96786.48
2018-08-07T04:17:28.657Z,96783.92
2018-08-07T04:19:55.839Z,96775.84
2018-08-07T04:22:22.998Z,96599.61
2018-08-07T04:24:50.141Z,96789.21
2018-08-07T04:27:17.240Z,96791.21
2018-08-07T04:29:44.408Z,96793.35
2018-08-07T04:32:11.600Z,96793.05
2018-08-07T04:34:38.717Z,96791.91
2018-08-07T04:37:05.920Z,96788.98
2018-08-07T04:39:33.133Z,96791.70
2018-08-07T04:42:00.269Z,96793.61
2018-08-07T04:44:27.424Z,96786.59
2018-08-07T04:46:54.545Z,96790.08
2018-08-07T04:49:21.672Z,96789.23
2018-08-07T04:51:48.911Z,96787.56
2018-08-07T04:54:16.008Z,96784.87
2018-08-07T04:56:43.169Z,96788.14
2018-08-07T04:59:10.334Z,96774.20
2018-08-07T05:01:37.572Z,96792.32
2018-08-07T05:04:04.841Z,96795.07
2018-08-07T05:06:31.984Z,96785.62
2018-08-07T05:08:59.080Z,96792.59
2018-08-07T05:11:26.208Z,96794.08
2018-08-07T05:13:53.369Z,96788.03
2018-08-07T05:16:20.580Z,96796.83
2018-08-07T05:18:47.868Z,96792.61
2018-08-07T05:21:15.039Z,96791.14
2018-08-07T05:23:42.200Z,96792.69
2018-08-07T05:26:09.365Z,96788.75
2018-08-07T05:28:36.500Z,96798.27
2018-08-07T05:31:03.706Z,96793.45
2018-08-07T05:33:30.835Z,96791.77
2018-08-07T05:35:58.056Z,96798.57
2018-08-07T05:38:25.168Z,96800.23
2018-08-07T05:40:52.325Z,96799.58
2018-08-07T05:43:19.520Z,96802.77
2018-08-07T05:45:46.649Z,96798.94
2018-08-07T05:50:48.128Z,96792.85
2018-08-07T05:53:15.033Z,96791.59
2018-08-07T05:55:42.293Z,96794.19
2018-08-07T05:58:09.483Z,96792.23
2018-08-07T06:00:36.653Z,96798.46
2018-08-07T06:03:03.916Z,96798.28
2018-08-07T06:05:31.009Z,96791.05
2018-08-07T06:07:58.160Z,96797.19
2018-08-07T06:10:25.317Z,96801.19
2018-08-07T06:12:52.453Z,96797.65
2018-08-07T06:15:19.651Z,96802.98
2018-08-07T06:17:47.331Z,96797.70
2018-08-07T06:20:14.485Z,96800.06
2018-08-07T06:22:41.688Z,96798.84
2018-08-07T06:25:09.592Z,96797.64
2018-08-07T06:27:37.131Z,96800.02
2018-08-07T06:30:15.965Z,96793.90
2018-08-07T06:32:43.521Z,96797.58
2018-08-07T06:35:10.741Z,96799.83
2018-08-07T06:37:37.849Z,96802.16
2018-08-07T06:40:06.864Z,96796.84
2018-08-07T06:42:34.252Z,96805.20
2018-08-07T06:45:01.396Z,96802.69
2018-08-07T06:47:28.524Z,96797.85
2018-08-07T06:49:55.689Z,96805.13
2018-08-07T06:52:22.865Z,96806.75
2018-08-07T06:54:50.089Z,96804.23
2018-08-07T06:57:17.433Z,96801.36
2018-08-07T06:59:44.585Z,96801.69
2018-08-07T07:02:12.013Z,96801.95
2018-08-07T07:04:39.190Z,96801.56
2018-08-07T07:07:06.757Z,96804.06
2018-08-07T07:09:33.972Z,96802.28
2018-08-07T07:12:01.081Z,96804.73
2018-08-07T07:14:28.279Z,96798.75
2018-08-07T07:16:55.451Z,96793.00
2018-08-07T07:19:22.666Z,96795.03
2018-08-07T07:21:49.826Z,96799.00
2018-08-07T07:24:17.023Z,96795.96
2018-08-07T07:26:44.248Z,96798.06
2018-08-07T07:29:11.415Z,96796.52
2018-08-07T07:31:38.576Z,96793.20
2018-08-07T07:34:05.798Z,96793.84
2018-08-07T07:36:32.932Z,96797.30
2018-08-07T07:39:00.144Z,96797.41
2018-08-07T07:41:27.330Z,96798.57
2018-08-07T07:43:54.541Z,96794.81
2018-08-07T07:46:21.677Z,96789.12
2018-08-07T07:48:48.893Z,96788.21
2018-08-07T07:51:16.080Z,96785.56
2018-08-07T07:53:43.216Z,96784.41
2018-08-07T07:56:10.486Z,96779.41
2018-08-07T07:58:37.719Z,96779.91
2018-08-07T08:01:04.894Z,96775.15
2018-08-07T08:03:32.092Z,96782.66
2018-08-07T08:05:59.323Z,96774.11
2018-08-07T08:08:26.444Z,96773.09
2018-08-07T08:10:53.556Z,96773.72
2018-08-07T08:13:20.746Z,96769.78
2018-08-07T08:15:48.013Z,96765.87
2018-08-07T08:18:15.179Z,96767.68
2018-08-07T08:20:42.372Z,96764.48
2018-08-07T08:23:09.528Z,96762.09
2018-08-07T08:25:36.676Z,96762.23
2018-08-07T08:28:03.832Z,96758.72
2018-08-07T08:30:30.985Z,96766.16
2018-08-07T08:32:58.115Z,96763.27
2018-08-07T08:35:25.387Z,96758.11
2018-08-07T08:37:52.497Z,96761.53
2018-08-07T08:40:21.241Z,96760.98
2018-08-07T08:42:48.537Z,96763.71
2018-08-07T08:45:18.983Z,96753.57
2018-08-07T08:47:48.355Z,96748.11
2018-08-07T08:50:16.868Z,96749.31
2018-08-07T08:52:44.145Z,96746.73
2018-08-07T08:55:11.368Z,96746.34
2018-08-07T08:57:39.441Z,96750.80
2018-08-07T09:00:10.277Z,96745.84
2018-08-07T09:02:37.393Z,96748.34
2018-08-07T09:05:06.216Z,96744.97
2018-08-07T09:07:33.361Z,96736.60
2018-08-07T09:10:00.529Z,96736.75
2018-08-07T09:12:27.989Z,96745.86
2018-08-07T09:14:55.190Z,96740.53
2018-08-07T09:17:22.325Z,96741.31
2018-08-07T09:19:49.452Z,96739.44
2018-08-07T09:22:16.644Z,96732.19
2018-08-07T09:24:43.791Z,96720.94
2018-08-07T09:27:10.945Z,96725.51
2018-08-07T09:29:38.080Z,96714.58
2018-08-07T09:32:05.786Z,96722.16
2018-08-07T09:34:32.910Z,96721.05
2018-08-07T09:37:00.402Z,96718.53
2018-08-07T09:39:27.875Z,96716.11
2018-08-07T09:41:55.310Z,96713.64
2018-08-07T09:44:22.803Z,96712.59
2018-08-07T09:46:50.275Z,96705.58
2018-08-07T09:49:17.731Z,96713.31
2018-08-07T09:51:45.307Z,96707.28
2018-08-07T09:54:12.925Z,96699.97
2018-08-07T09:56:40.572Z,96711.27
2018-08-07T09:59:08.409Z,96706.46
2018-08-07T10:02:39.827Z,96700.23
2018-08-07T10:05:07.538Z,96700.53
2018-08-07T10:07:35.281Z,96700.66
2018-08-07T10:10:04.450Z,96699.80
2018-08-07T10:12:32.163Z,96701.02
2018-08-07T10:14:59.760Z,96697.40
2018-08-07T10:17:27.366Z,96692.22
2018-08-07T10:19:55.036Z,96696.35
2018-08-07T10:22:22.703Z,96698.02
2018-08-07T10:24:50.372Z,96699.30
2018-08-07T10:27:18.097Z,96683.86
2018-08-07T10:29:45.718Z,96681.70
2018-08-07T10:32:13.388Z,96681.69
2018-08-07T10:34:41.090Z,96682.02
2018-08-07T10:37:08.833Z,96680.07
2018-08-07T10:39:36.584Z,96677.36
2018-08-07T10:42:04.300Z,96686.52
2018-08-07T10:44:32.022Z,96677.63
2018-08-07T10:46:59.687Z,96676.92
2018-08-07T10:49:27.433Z,96673.11
2018-08-07T10:51:55.113Z,96671.34
2018-08-07T10:54:22.828Z,96668.77
2018-08-07T10:56:50.548Z,96670.28
2018-08-07T10:59:18.261Z,96665.28
2018-08-07T11:01:45.901Z,96664.59
2018-08-07T11:04:13.619Z,96656.97
2018-08-07T11:06:41.287Z,96653.63
2018-08-07T11:09:09.610Z,96653.82
2018-08-07T11:11:37.214Z,96657.13
2018-08-07T11:14:05.009Z,96656.97
2018-08-07T11:16:32.582Z,96650.18
2018-08-07T11:19:00.185Z,96654.23
2018-08-07T11:21:27.854Z,96651.14
2018-08-07T11:23:55.564Z,96642.84
2018-08-07T11:26:23.158Z,96648.17
2018-08-07T11:28:50.779Z,96640.41
2018-08-07T11:31:18.471Z,96642.56
2018-08-07T11:33:46.718Z,96632.56
2018-08-07T11:36:14.407Z,96629.98
2018-08-07T11:38:42.090Z,96638.66
2018-08-07T11:41:09.786Z,96632.33
2018-08-07T11:43:37.458Z,96631.27
2018-08-07T11:46:06.095Z,96635.09
2018-08-07T11:48:34.244Z,96632.77
2018-08-07T11:51:01.999Z,96625.75
2018-08-07T11:53:29.697Z,96625.08
2018-08-07T11:55:57.592Z,96616.16
2018-08-07T11:58:25.491Z,96609.85
2018-08-07T12:00:53.265Z,96606.75
2018-08-07T12:03:21.728Z,96602.84
2018-08-07T12:05:49.771Z,96597.38
2018-08-07T12:08:17.571Z,96598.19
2018-08-07T12:10:45.993Z,96603.91
2018-08-07T12:13:14.795Z,96601.78
2018-08-07T12:15:42.457Z,96601.23
2018-08-07T12:18:10.005Z,96596.39
2018-08-07T12:20:37.574Z,96594.05
2018-08-07T12:23:05.486Z,96590.80
2018-08-07T12:25:33.183Z,96588.00
2018-08-07T12:28:00.908Z,96579.91
2018-08-07T12:30:29.598Z,96585.46
2018-08-07T12:32:57.626Z,96578.48
2018-08-07T12:35:25.324Z,96572.00
2018-08-07T12:37:52.834Z,96574.17
2018-08-07T12:40:22.491Z,96578.97
2018-08-07T12:42:50.712Z,96571.09
2018-08-07T12:45:18.386Z,96572.08
2018-08-07T12:47:46.469Z,96573.70
2018-08-07T12:50:14.885Z,96577.77
2018-08-07T12:52:42.516Z,96567.11
2018-08-07T12:55:12.043Z,96561.30
2018-08-07T12:57:39.702Z,96560.14
2018-08-07T13:00:12.653Z,96562.78
2018-08-07T13:02:40.327Z,96554.67
2018-08-07T13:05:08.111Z,96561.54
2018-08-07T13:07:35.674Z,96559.06
2018-08-07T13:10:05.468Z,96548.13
2018-08-07T13:12:32.964Z,96559.26
2018-08-07T13:15:00.513Z,96558.73
2018-08-07T13:17:28.054Z,96559.96
2018-08-07T13:19:55.468Z,96546.10
2018-08-07T13:22:22.872Z,96542.80
2018-08-07T13:24:50.567Z,96539.96
2018-08-07T13:27:18.059Z,96537.44
2018-08-07T13:29:45.579Z,96532.83
2018-08-07T13:32:13.172Z,96534.75
2018-08-07T13:34:40.753Z,96527.61
2018-08-07T13:37:08.574Z,96529.56
2018-08-07T13:39:36.193Z,96531.64
2018-08-07T13:42:03.883Z,96533.61
2018-08-07T13:44:31.629Z,96530.75
2018-08-07T13:46:59.312Z,96529.38
2018-08-07T13:49:26.912Z,96517.09
2018-08-07T13:51:54.499Z,96517.55
2018-08-07T13:54:22.083Z,96520.22
2018-08-07T13:56:49.725Z,96517.52
2018-08-07T13:59:17.297Z,96519.48
2018-08-07T14:01:44.863Z,96519.05
2018-08-07T14:04:12.475Z,96516.20
2018-08-07T14:06:39.991Z,96518.67
2018-08-07T14:09:08.497Z,96499.73
2018-08-07T14:11:36.128Z,96506.14
2018-08-07T14:14:03.824Z,96501.35
2018-08-07T14:16:31.348Z,96500.03
2018-08-07T14:18:58.931Z,96502.88
2018-08-07T14:21:26.482Z,96499.72
2018-08-07T14:23:53.942Z,96495.88
2018-08-07T14:26:21.440Z,96494.30
2018-08-07T14:28:48.966Z,96494.21
2018-08-07T14:31:16.360Z,96493.50
2018-08-07T14:33:43.865Z,96493.52
2018-08-07T14:36:11.401Z,96438.44
2018-08-07T14:38:38.900Z,96493.45
2018-08-07T14:41:06.385Z,96491.27
2018-08-07T14:43:33.865Z,96493.88
2018-08-07T14:46:01.416Z,96486.86
2018-08-07T14:48:28.951Z,96483.23
2018-08-07T14:50:56.449Z,96478.44
2018-08-07T14:53:23.868Z,96475.34
2018-08-07T14:55:51.317Z,96479.25
2018-08-07T14:58:18.746Z,96473.97
2018-08-07T15:00:46.189Z,96474.37
2018-08-07T15:03:13.650Z,96470.33
2018-08-07T15:05:41.218Z,96469.23
2018-08-07T15:08:08.749Z,96478.00
2018-08-07T15:10:36.259Z,96328.83
2018-08-07T15:13:03.830Z,96472.58
2018-08-07T15:15:34.316Z,96472.23
2018-08-07T15:18:01.814Z,96473.81
2018-08-07T15:20:30.306Z,96474.47
2018-08-07T15:22:58.008Z,96480.65
2018-08-07T15:25:25.577Z,96336.83
2018-08-07T15:27:53.103Z,96476.42
2018-08-07T15:30:23.651Z,96479.73
2018-08-07T15:32:51.540Z,96477.78
2018-08-07T15:35:21.465Z,96481.15
2018-08-07T15:37:49.003Z,96485.17
2018-08-07T15:40:21.079Z,96486.50
2018-08-07T15:42:48.632Z,96487.33
2018-08-07T15:45:18.575Z,96489.11
2018-08-07T15:47:46.124Z,96488.77
2018-08-07T15:50:16.558Z,96482.85
2018-08-07T15:52:45.563Z,96486.92
2018-08-07T15:55:15.325Z,96488.40
2018-08-07T15:57:42.790Z,96483.80
2018-08-07T16:00:13.787Z,96477.57
2018-08-07T16:02:41.301Z,96479.77
2018-08-07T16:05:08.723Z,96483.39
2018-08-07T16:07:36.180Z,96485.18
2018-08-07T16:10:04.891Z,96476.60
2018-08-07T16:12:32.491Z,96478.98
2018-08-07T16:14:59.922Z,96475.86
2018-08-07T16:17:27.435Z,96470.83
2018-08-07T16:19:54.907Z,96475.38
2018-08-07T16:22:22.374Z,96470.81
2018-08-07T16:24:49.808Z,96475.80
2018-08-07T16:27:17.258Z,96472.73
2018-08-07T16:29:44.802Z,96469.80
2018-08-07T16:32:12.170Z,96472.81
2018-08-07T16:34:39.652Z,96462.80
2018-08-07T16:37:07.034Z,96467.97
2018-08-07T16:39:34.476Z,96470.47
2018-08-07T16:42:01.878Z,96467.04
2018-08-07T16:44:29.288Z,96464.98
2018-08-07T16:46:56.768Z,96459.55
2018-08-07T16:49:24.223Z,96456.57
2018-08-07T16:51:51.671Z,96451.31
2018-08-07T16:54:19.139Z,96387.23
2018-08-07T16:56:46.725Z,96456.63
2018-08-07T16:59:14.139Z,96456.14
2018-08-07T17:01:41.589Z,96449.03
2018-08-07T17:04:09.073Z,96442.86
2018-08-07T17:06:36.588Z,96441.48
2018-08-07T17:09:08.461Z,96438.69
2018-08-07T17:14:31.443Z,96436.02
2018-08-07T17:16:58.918Z,96435.96
2018-08-07T17:19:26.413Z,96435.06
2018-08-07T17:21:53.893Z,96434.23
2018-08-07T17:24:21.413Z,96428.80
2018-08-07T17:26:48.797Z,96428.66
2018-08-07T17:29:16.236Z,96430.52
2018-08-07T17:31:43.725Z,96433.05
2018-08-07T17:34:11.207Z,96431.75
2018-08-07T17:36:38.627Z,96427.78
2018-08-07T17:39:07.255Z,96429.26
2018-08-07T17:51:14.748Z,96429.48
2018-08-07T17:53:42.235Z,96429.39
2018-08-07T17:56:09.629Z,96432.39
2018-08-07T17:58:37.130Z,96432.40
2018-08-07T18:01:07.724Z,96428.25
2018-08-07T18:03:34.996Z,96434.55
2018-08-07T18:06:02.213Z,96430.91
2018-08-07T18:08:29.523Z,96430.72
2018-08-07T18:10:56.765Z,96436.09
2018-08-07T18:13:24.093Z,96435.98
2018-08-07T18:15:51.306Z,96438.14
2018-08-07T18:18:18.593Z,96436.63
2018-08-07T18:20:45.843Z,96441.44
2018-08-07T18:23:13.006Z,96447.08
2018-08-07T18:25:40.238Z,96449.32
2018-08-07T18:28:07.440Z,96455.23
2018-08-07T18:30:34.701Z,96446.75
2018-08-07T18:33:01.873Z,96451.02
2018-08-07T18:35:29.115Z,96452.88
2018-08-07T18:37:56.419Z,96458.94
2018-08-07T18:40:23.635Z,96462.42
2018-08-07T18:42:50.898Z,96467.02
2018-08-07T18:45:18.155Z,96473.38
2018-08-07T18:47:45.925Z,96478.58
2018-08-07T18:50:15.261Z,96482.84
2018-08-07T18:52:42.521Z,96495.33
2018-08-07T18:55:11.586Z,96490.50
2018-08-07T18:57:39.465Z,96492.20
2018-08-07T19:00:08.705Z,96493.79
2018-08-07T19:02:36.290Z,96489.73
2018-08-07T19:05:05.021Z,96494.39
2018-08-07T19:07:32.265Z,96498.16
2018-08-07T19:09:59.484Z,96498.45
2018-08-07T19:12:26.629Z,96493.29
2018-08-07T19:14:53.850Z,96497.30
2018-08-07T19:17:21.090Z,96494.82
2018-08-07T19:19:48.313Z,96498.95
2018-08-07T19:22:15.529Z,96499.32
2018-08-07T19:24:42.727Z,96509.95
2018-08-07T19:27:10.069Z,96509.18
2018-08-07T19:29:37.286Z,96511.90
2018-08-07T19:32:04.606Z,96511.14
2018-08-07T19:34:31.885Z,96503.97
2018-08-07T19:36:59.076Z,96501.84
2018-08-07T19:39:26.273Z,96499.70
2018-08-07T19:41:53.506Z,96501.41
2018-08-07T19:44:20.791Z,96501.06
2018-08-07T19:46:48.024Z,96499.73
2018-08-07T19:49:15.295Z,96494.89
2018-08-07T19:51:42.495Z,96500.48
2018-08-07T19:54:09.759Z,96506.28
2018-08-07T19:56:36.941Z,96506.17
2018-08-07T19:59:04.492Z,96504.24
2018-08-07T20:01:31.756Z,96498.69
2018-08-07T20:03:59.114Z,96501.12
2018-08-07T20:06:26.326Z,96501.80
2018-08-07T20:08:53.524Z,96501.52
2018-08-07T20:11:20.690Z,96504.40
2018-08-07T20:13:47.968Z,96497.69
2018-08-07T20:16:15.143Z,96494.30
2018-08-07T20:18:42.393Z,96492.59
2018-08-07T20:21:09.843Z,96494.69
2018-08-07T20:23:37.122Z,96488.62
2018-08-07T20:26:04.820Z,96498.53
2018-08-07T20:28:32.026Z,96504.78
2018-08-07T20:30:59.475Z,96515.05
2018-08-07T20:33:26.789Z,96511.16
2018-08-07T20:35:54.050Z,96512.34
2018-08-07T20:38:21.233Z,96512.16
2018-08-07T20:40:48.523Z,96514.30
2018-08-07T20:43:15.734Z,96516.31
2018-08-07T20:45:42.984Z,96513.34
2018-08-07T20:48:10.178Z,96522.92
2018-08-07T20:50:37.351Z,96524.27
2018-08-07T20:53:04.489Z,96527.40
2018-08-07T20:55:31.779Z,96534.76
2018-08-07T20:57:58.976Z,96534.25
2018-08-07T21:00:27.300Z,96532.31
2018-08-07T21:02:54.517Z,96529.94
2018-08-07T21:05:21.815Z,96532.94
2018-08-07T21:07:49.029Z,96519.36
2018-08-07T21:10:53.080Z,96526.30
2018-08-07T21:13:20.205Z,96536.11
2018-08-07T21:15:47.411Z,96533.23
2018-08-07T21:18:14.613Z,96535.52
2018-08-07T21:20:41.860Z,96543.57
2018-08-07T21:23:09.008Z,96541.19
2018-08-07T21:25:36.195Z,96543.14
2018-08-07T21:28:03.324Z,96556.58
2018-08-07T21:30:31.663Z,96588.78
2018-08-07T21:32:58.884Z,96589.64
2018-08-07T21:35:26.089Z,96580.24
2018-08-07T21:37:53.353Z,96588.20
2018-08-07T21:40:24.539Z,96593.19
2018-08-07T21:42:53.470Z,96590.00
2018-08-07T21:45:20.822Z,96596.60
2018-08-07T21:47:49.049Z,96594.50
2018-08-07T21:50:19.131Z,96595.86
2018-08-07T21:52:46.502Z,96603.06
2018-08-07T21:55:15.033Z,96600.61
2018-08-07T21:57:42.198Z,96601.96
2018-08-07T22:00:17.662Z,96602.61
2018-08-07T22:02:45.736Z,96601.31
2018-08-07T22:05:13.329Z,96605.00
2018-08-07T22:07:40.501Z,96596.73
2018-08-07T22:10:17.285Z,96608.31
2018-08-07T22:12:44.896Z,96606.03
2018-08-07T22:15:13.029Z,96599.25
2018-08-07T22:17:40.221Z,96603.28
2018-08-07T22:20:08.370Z,96602.50
2018-08-07T22:22:35.541Z,96601.54
2018-08-07T22:25:02.811Z,96602.38
2018-08-07T22:27:29.985Z,96603.03
2018-08-07T22:29:57.183Z,96597.14
2018-08-07T22:32:24.357Z,96590.94
2018-08-07T22:34:51.541Z,96586.91
2018-08-07T22:37:18.741Z,96587.28
2018-08-07T22:39:45.831Z,96586.98
2018-08-07T22:42:13.017Z,96585.00
2018-08-07T22:44:40.216Z,96588.70
2018-08-07T22:47:07.396Z,96586.46
2018-08-07T22:49:34.530Z,96586.50
2018-08-07T22:52:01.724Z,96577.79
2018-08-07T22:54:28.883Z,96580.88
2018-08-07T22:56:56.032Z,96576.92
2018-08-07T22:59:23.224Z,96576.82
2018-08-07T23:01:50.390Z,96579.39
2018-08-07T23:04:17.580Z,96576.06
2018-08-07T23:06:44.694Z,96570.70
2018-08-07T23:09:11.855Z,96571.70
2018-08-07T23:11:39.020Z,96569.17
2018-08-07T23:14:06.183Z,96581.64
2018-08-07T23:16:33.361Z,96572.16
2018-08-07T23:19:00.540Z,96563.23
2018-08-07T23:21:27.707Z,96560.17
2018-08-07T23:23:54.874Z,96561.01
2018-08-07T23:26:22.121Z,96561.84
2018-08-07T23:28:49.265Z,96550.74
2018-08-07T23:31:16.384Z,96549.49
2018-08-07T23:33:43.561Z,96543.02
2018-08-07T23:36:10.755Z,96533.14
2018-08-07T23:38:37.876Z,96529.92
2018-08-07T23:41:05.020Z,96517.41
2018-08-07T23:43:32.232Z,96513.55
2018-08-07T23:45:59.333Z,96500.63
2018-08-07T23:48:26.477Z,96494.59
2018-08-07T23:50:53.628Z,96488.62
2018-08-07T23:53:20.741Z,96493.02
2018-08-07T23:55:47.891Z,96490.31
2018-08-07T23:58:15.120Z,96486.71
